Pagrindinis puslapis
METAR-TAF:

METAR-TAF

Oro uostai :

Wittmund, Vokietija

platuma: 53-33N, ilguma: 007-40E, Aukštis: 8 m

Dabartinis oras

Ataskaita buvo paskelbta 47 minutes, ne 09:20 UTC
Vėjas 6 kt iš Vakarų/Pietvakarių
Temperatūra 14°C
Drėgmė 72%
Slėgis 1029 hPa
Matomumas 10 km arba daugiau
Mažai debesys ne aukštis 2600 ft
Su prošvaistėmis ne aukštis 3000 ft

METAR: ETNT 200920Z 25006KT 9999 FEW026 BKN030 14/09 Q1029 BLU BLU TEMPO WHT

Laikas: 12:07 (10:07 UTC)

Prognozė

Ataskaita buvo paskelbta 3 valandos ir 7 minutes, ne 07:00 UTC
Prognozė galioja nuo 20 metu 08 UTC su 20 metu 17 UTC
Vėjas 5 kt iš Vakarų/Pietvakarių
Matomumas 10 km arba daugiau
Išsisklaidę debesys ne aukštis 1500 ft
Su prošvaistėmis ne aukštis 2500 ft
Laikinai
nuo 20 metu 08 UTC su 20 metu 17 UTC
Vėjas 8 kt iš Vakarų
Matomumas: 5000 m
Išsisklaidę debesys ne aukštis 1200 ft
Su prošvaistėmis ne aukštis 2000 ft
rūkana

TAF: ETNT 200700Z 2008/2017 25005KT 9999 NSW SCT015 BKN025 TEMPO 2008/2017 27008KT 5000 BR SCT012 BKN020 BY ETGL

Orai ataskaitas ir orų prognozės (METAR, TAF).

turimą stotys yra geltonos ir raudonos taškus žemėlapyje.

Perkelti pele per norėdami pamatyti stoties vardą.

Tada spustelėkite, norėdami matyti oro stebėjimo ir prognozės.

Norėdami pakeisti žemėlapį: spustelėkite ant žalios mygtukų su juodo kryžiaus žemyn,; žalią mygtuką su brūkšneliu, jei norite nutolinti; arba žalių rodyklių gretimoms žemėlapius.


METAR-TAF: